Time;durP1;ratioP1;P1;durP2;ratioP2;P2;SDS_P1;SDS_P2;PMS_P1;PMS_P2;Temp;Humidity;BMP_temperature;BMP_pressure;BME280_temperature;BME280_humidity;BME280_pressure;Samples;Min_cycle;Max_cycle;Signal;HPM_P1;HPM_P2
2022/05/08 00:02:11;;;;;;;;;25.00;23.00;;;;;18.45;53.39;101597.16;5093525;27;45542;-61
2022/05/08 00:04:37;;;;;;;;;22.33;22.00;;;;;18.39;54.09;101605.50;5093955;27;45680;-61
2022/05/08 00:07:02;;;;;;;;;24.00;22.67;;;;;18.38;54.08;101598.47;5093774;27;45931;-61
2022/05/08 00:09:28;;;;;;;;;19.00;19.00;;;;;18.37;53.50;101602.91;5094059;27;45852;-61
2022/05/08 00:11:53;;;;;;;;;21.33;21.00;;;;;18.36;53.88;101600.31;5093882;27;46046;-60
2022/05/08 00:14:19;;;;;;;;;26.67;24.67;;;;;18.31;54.16;101587.25;5093536;27;45456;-60
2022/05/08 00:16:44;;;;;;;;;23.67;22.33;;;;;18.34;53.79;101603.06;5093693;27;46150;-60
2022/05/08 00:19:10;;;;;;;;;21.00;21.00;;;;;18.29;53.75;101600.63;5094027;27;45403;-61
2022/05/08 00:21:35;;;;;;;;;24.33;24.33;;;;;18.28;53.78;101595.41;5094037;27;45536;-60
2022/05/08 00:24:00;;;;;;;;;18.67;18.67;;;;;18.27;53.71;101593.69;5094076;27;45406;-60
2022/05/08 00:26:26;;;;;;;;;24.00;22.00;;;;;18.25;53.59;101593.75;5093415;27;45987;-60
2022/05/08 00:28:51;;;;;;;;;25.00;21.33;;;;;18.22;53.76;101588.59;5091500;27;46129;-61
2022/05/08 00:31:16;;;;;;;;;23.67;22.33;;;;;18.22;53.33;101585.06;5092599;27;45578;-61
2022/05/08 00:33:42;;;;;;;;;29.33;27.00;;;;;18.24;53.71;101589.38;5093347;27;45463;-61
2022/05/08 00:36:08;;;;;;;;;22.33;20.00;;;;;18.20;54.19;101589.59;5092592;27;45453;-61
2022/05/08 00:38:34;;;;;;;;;18.33;17.33;;;;;18.12;53.79;101586.47;5091713;27;45464;-60
2022/05/08 00:40:59;;;;;;;;;26.67;24.00;;;;;18.09;54.62;101592.81;5092305;27;45470;-60
2022/05/08 00:43:38;;;;;;;;;25.33;24.00;;;;;18.06;54.60;101585.00;5093342;27;45440;-60
2022/05/08 00:46:11;;;;;;;;;21.33;19.00;;;;;17.95;55.06;101590.84;5093403;27;45535;-60
2022/05/08 00:48:38;;;;;;;;;21.00;20.00;;;;;17.94;54.61;101582.94;5093448;27;45567;-62
2022/05/08 00:51:10;;;;;;;;;20.00;20.00;;;;;17.96;54.54;101592.56;5091881;27;45387;-60
2022/05/08 00:53:38;;;;;;;;;23.33;22.33;;;;;17.95;55.33;101590.00;5093638;27;45521;-60
2022/05/08 00:56:06;;;;;;;;;19.33;19.33;;;;;17.94;55.17;101594.44;5093226;27;45482;-60
2022/05/08 00:58:33;;;;;;;;;18.00;17.67;;;;;17.90;54.94;101590.22;5092858;27;45561;-60
2022/05/08 01:00:59;;;;;;;;;21.00;21.00;;;;;17.87;55.05;101593.03;5093244;27;45492;-60
2022/05/08 01:03:24;;;;;;;;;19.33;18.33;;;;;17.85;55.21;101600.22;5093399;27;45547;-60
2022/05/08 01:05:53;;;;;;;;;23.67;22.00;;;;;17.86;55.05;101597.47;5093368;27;46139;-61
2022/05/08 01:08:18;;;;;;;;;19.67;18.33;;;;;17.85;54.41;101595.75;5094383;27;45621;-62
2022/05/08 01:10:43;;;;;;;;;22.00;22.00;;;;;17.85;55.57;101595.75;5096428;27;45519;-60
2022/05/08 01:13:09;;;;;;;;;24.33;24.00;;;;;17.83;54.79;101599.44;5096850;27;45362;-60
2022/05/08 01:15:45;;;;;;;;;23.67;19.67;;;;;17.81;55.33;101596.88;5096435;27;47152;-60
2022/05/08 01:18:15;;;;;;;;;23.00;22.00;;;;;17.75;55.62;101597.13;5095574;27;45537;-60
2022/05/08 01:20:42;;;;;;;;;22.67;22.67;;;;;17.72;55.36;101588.44;5096614;27;45469;-60
2022/05/08 01:23:09;;;;;;;;;21.00;20.00;;;;;17.73;55.50;101595.47;5095146;27;45609;-60
2022/05/08 01:25:35;;;;;;;;;21.00;21.00;;;;;17.74;55.51;101587.44;5096541;27;45429;-61
2022/05/08 01:28:04;;;;;;;;;19.00;19.00;;;;;17.71;55.56;101592.91;5096546;27;45472;-60
2022/05/08 01:30:31;;;;;;;;;19.00;17.33;;;;;17.73;55.03;101583.06;5096790;27;45504;-60
2022/05/08 01:33:00;;;;;;;;;20.67;17.00;;;;;17.69;55.51;101592.13;5096458;27;45464;-60
2022/05/08 01:35:26;;;;;;;;;21.67;20.67;;;;;17.63;55.33;101579.97;5096164;27;46043;-60
2022/05/08 01:37:52;;;;;;;;;19.67;19.67;;;;;17.63;55.50;101589.75;5096323;27;45444;-60
2022/05/08 01:40:17;;;;;;;;;21.00;19.67;;;;;17.59;55.85;101583.72;5096480;27;45570;-60
2022/05/08 01:42:44;;;;;;;;;25.33;25.33;;;;;17.60;55.29;101588.13;5096133;27;45722;-60
2022/05/08 01:45:10;;;;;;;;;21.67;21.67;;;;;17.56;55.61;101591.84;5096237;27;46158;-60
2022/05/08 01:50:20;;;;;;;;;19.33;19.33;;;;;17.48;55.84;101590.50;5096226;27;45432;-60
2022/05/08 01:52:45;;;;;;;;;22.00;20.00;;;;;17.44;55.84;101592.47;5096237;27;45575;-60
2022/05/08 01:55:10;;;;;;;;;19.00;18.00;;;;;17.47;55.71;101594.97;5095720;27;53246;-60
2022/05/08 01:57:35;;;;;;;;;25.67;22.67;;;;;17.47;55.65;101591.44;5095947;27;45467;-60
2022/05/08 02:00:01;;;;;;;;;22.00;22.00;;;;;17.43;56.07;101588.91;5096003;27;45505;-60
2022/05/08 02:02:26;;;;;;;;;23.67;21.00;;;;;17.35;56.23;101590.22;5096347;27;45630;-61
2022/05/08 02:04:51;;;;;;;;;23.67;22.67;;;;;17.32;56.08;101596.53;5096155;27;45586;-60
2022/05/08 02:07:17;;;;;;;;;23.00;19.67;;;;;17.31;55.62;101594.84;5095674;27;45575;-60
2022/05/08 02:09:44;;;;;;;;;26.00;23.67;;;;;17.32;55.65;101596.53;5096039;27;45512;-60
2022/05/08 02:12:10;;;;;;;;;19.33;19.33;;;;;17.28;56.05;101592.31;5096068;27;45573;-60
2022/05/08 02:14:35;;;;;;;;;25.67;23.67;;;;;17.21;56.85;101583.75;5095432;27;46147;-60
2022/05/08 02:17:00;;;;;;;;;24.33;23.00;;;;;17.15;56.65;101586.72;5095372;27;46466;-60
2022/05/08 02:19:25;;;;;;;;;26.00;24.00;;;;;17.08;56.85;101592.38;5095508;27;45495;-60
2022/05/08 02:21:51;;;;;;;;;24.67;23.67;;;;;17.05;56.89;101588.06;5095087;27;50577;-60
2022/05/08 02:24:16;;;;;;;;;24.67;23.33;;;;;16.97;57.00;101595.53;5095566;27;46388;-60
2022/05/08 02:26:41;;;;;;;;;27.67;24.67;;;;;16.91;57.63;101596.69;5095715;27;45409;-60
2022/05/08 02:29:07;;;;;;;;;30.33;27.00;;;;;16.89;58.04;101592.38;5095914;27;45606;-60
2022/05/08 02:31:32;;;;;;;;;26.00;23.33;;;;;16.92;57.37;101593.09;5094986;27;45577;-59
2022/05/08 02:33:58;;;;;;;;;23.00;23.00;;;;;16.97;56.96;101601.72;5095441;27;46036;-60
2022/05/08 02:36:23;;;;;;;;;23.33;20.67;;;;;16.99;57.31;101604.31;5095621;27;45759;-60
2022/05/08 02:38:48;;;;;;;;;27.33;26.67;;;;;16.97;57.47;101603.50;5095662;27;45574;-60
2022/05/08 02:41:14;;;;;;;;;27.67;26.67;;;;;17.02;57.16;101603.31;5095197;27;45444;-60
2022/05/08 02:43:39;;;;;;;;;29.00;27.33;;;;;16.92;57.35;101598.41;5095359;27;45564;-60
2022/05/08 02:46:04;;;;;;;;;29.67;26.33;;;;;16.87;57.39;101599.56;5095424;27;45377;-60
2022/05/08 02:48:30;;;;;;;;;31.00;25.67;;;;;16.82;57.40;101601.56;5095479;27;45500;-60
2022/05/08 02:50:55;;;;;;;;;28.00;26.00;;;;;16.72;57.87;101601.09;5095141;27;45514;-60
2022/05/08 02:53:20;;;;;;;;;29.33;27.33;;;;;16.67;57.68;101603.94;5095198;27;46024;-60
2022/05/08 02:58:33;;;;;;;;;24.67;22.00;;;;;16.75;58.28;101611.56;5095251;27;45429;-60
2022/05/08 03:00:59;;;;;;;;;30.00;26.00;;;;;16.74;57.96;101604.56;5095129;27;45638;-60
2022/05/08 03:03:25;;;;;;;;;28.67;26.67;;;;;16.73;58.31;101610.78;5094852;27;45504;-59
2022/05/08 03:05:50;;;;;;;;;28.00;24.33;;;;;16.65;57.92;101611.09;5094681;27;45493;-60
2022/05/08 03:08:17;;;;;;;;;29.00;27.33;;;;;16.59;57.89;101606.09;5095063;27;45492;-60
2022/05/08 03:13:29;;;;;;;;;25.00;25.00;;;;;16.49;58.54;101608.28;5094690;27;45717;-60
2022/05/08 03:15:54;;;;;;;;;29.00;29.00;;;;;16.52;58.11;101610.81;5094876;27;45515;-60
2022/05/08 03:18:19;;;;;;;;;30.00;29.00;;;;;16.55;58.57;101608.03;5094878;27;45598;-60
2022/05/08 03:20:45;;;;;;;;;32.00;28.67;;;;;16.50;58.70;101610.00;5094815;27;45657;-60
2022/05/08 03:23:10;;;;;;;;;33.33;31.00;;;;;16.37;58.80;101614.13;5094630;27;46934;-60
2022/05/08 03:25:36;;;;;;;;;33.67;31.00;;;;;16.31;59.07;101611.75;5094841;27;45433;-60
2022/05/08 03:28:02;;;;;;;;;31.00;29.00;;;;;16.30;59.27;101615.31;5094743;27;45476;-60
2022/05/08 03:30:28;;;;;;;;;34.33;31.00;;;;;16.26;59.57;101619.03;5094124;27;45502;-60
2022/05/08 03:32:54;;;;;;;;;41.00;34.33;;;;;16.28;60.13;101612.75;5094246;27;45980;-60
2022/05/08 03:35:19;;;;;;;;;40.50;36.50;;;;;16.27;59.71;101613.66;5094623;27;45592;-61
2022/05/08 03:37:44;;;;;;;;;37.67;33.00;;;;;16.28;59.97;101610.09;5094797;27;45488;-60
2022/05/08 03:40:10;;;;;;;;;39.00;35.33;;;;;16.32;59.98;101610.81;5094353;27;46029;-61
2022/05/08 03:42:36;;;;;;;;;38.67;32.33;;;;;16.33;59.10;101615.19;5094190;27;45991;-60
2022/05/08 03:45:01;;;;;;;;;42.00;36.67;;;;;16.27;59.78;101603.03;5094477;27;45492;-58
2022/05/08 03:47:26;;;;;;;;;38.67;35.33;;;;;16.25;58.74;101604.88;5094582;27;45475;-59
2022/05/08 03:49:52;;;;;;;;;42.00;34.00;;;;;16.26;59.98;101606.63;5094413;27;45459;-59
2022/05/08 03:52:18;;;;;;;;;40.67;36.33;;;;;16.23;59.75;101608.56;5094301;27;46074;-60
2022/05/08 03:54:43;;;;;;;;;49.50;40.50;;;;;16.10;60.43;101611.72;5093967;27;45436;-60
2022/05/08 03:57:08;;;;;;;;;47.33;38.67;;;;;16.07;60.15;101603.03;5093952;27;45439;-60
2022/05/08 03:59:34;;;;;;;;;46.00;36.67;;;;;16.11;59.76;101616.09;5094224;27;45460;-60
2022/05/08 04:01:59;;;;;;;;;42.00;34.00;;;;;16.07;59.72;101613.66;5093803;27;46574;-60
2022/05/08 04:04:25;;;;;;;;;40.67;36.67;;;;;16.04;61.29;101616.41;5094209;27;45449;-60
2022/05/08 04:06:50;;;;;;;;;48.67;40.33;;;;;16.03;60.44;101614.69;5093651;27;54727;-60
2022/05/08 04:09:18;;;;;;;;;48.67;41.00;;;;;15.96;60.63;101614.09;5094213;27;45573;-60
2022/05/08 04:11:43;;;;;;;;;43.00;37.67;;;;;15.95;60.38;101619.47;5094082;27;45527;-59
2022/05/08 04:14:09;;;;;;;;;48.33;40.67;;;;;15.98;61.23;101609.56;5094083;27;45393;-60
2022/05/08 04:16:35;;;;;;;;;45.33;40.00;;;;;16.02;60.72;101613.84;5093927;27;45412;-60
2022/05/08 04:19:00;;;;;;;;;47.00;40.00;;;;;16.03;60.70;101612.03;5093763;27;45678;-59
2022/05/08 04:21:26;;;;;;;;;43.67;37.00;;;;;15.85;61.35;101597.75;5093300;27;45748;-60
2022/05/08 04:26:35;;;;;;;;;49.67;40.67;;;;;15.99;60.36;101616.63;5094149;27;45480;-60
2022/05/08 04:29:01;;;;;;;;;43.33;38.33;;;;;15.97;60.24;101617.63;5093852;27;45569;-60
2022/05/08 04:31:26;;;;;;;;;53.25;43.00;;;;;15.97;61.81;101623.78;5093684;27;45745;-60
2022/05/08 04:33:52;;;;;;;;;46.67;40.33;;;;;15.92;60.90;101620.44;5092267;27;45427;-60
2022/05/08 04:36:18;;;;;;;;;51.25;42.00;;;;;15.95;62.18;101622.13;5093809;27;45469;-60
2022/05/08 04:38:44;;;;;;;;;46.67;40.00;;;;;15.99;60.69;101618.41;5093726;27;45480;-59
2022/05/08 04:41:10;;;;;;;;;45.67;39.33;;;;;15.95;61.69;101627.41;5093705;27;46608;-60
2022/05/08 04:43:36;;;;;;;;;47.33;39.33;;;;;15.88;60.73;101614.41;5095330;27;45543;-59
2022/05/08 04:46:01;;;;;;;;;49.50;40.75;;;;;15.97;60.54;101631.75;5097318;27;45488;-59
2022/05/08 04:48:26;;;;;;;;;47.00;40.00;;;;;15.99;60.56;101629.91;5097253;27;45601;-59
2022/05/08 04:50:52;;;;;;;;;45.33;35.67;;;;;15.94;60.73;101639.84;5097072;27;45905;-59
2022/05/08 04:53:17;;;;;;;;;49.33;41.33;;;;;15.92;60.52;101633.72;5096933;27;45954;-58
2022/05/08 04:55:42;;;;;;;;;52.67;43.00;;;;;15.95;61.22;101636.25;5096940;27;45410;-59
2022/05/08 04:58:08;;;;;;;;;47.00;40.00;;;;;16.00;61.21;101636.91;5097367;27;45433;-59
2022/05/08 05:00:34;;;;;;;;;49.50;41.75;;;;;16.05;60.89;101644.69;5096469;27;45517;-59
2022/05/08 05:03:00;;;;;;;;;55.33;43.00;;;;;16.01;60.60;101651.94;5095763;27;45517;-59
2022/05/08 05:05:25;;;;;;;;;50.67;41.67;;;;;16.01;60.48;101657.22;5097118;27;45554;-59
2022/05/08 05:07:51;;;;;;;;;50.33;42.67;;;;;15.99;60.69;101647.59;5096711;27;45577;-60
2022/05/08 05:10:16;;;;;;;;;46.00;40.00;;;;;16.05;60.69;101652.66;5096600;27;46273;-59
2022/05/08 05:12:41;;;;;;;;;46.00;37.67;;;;;16.03;61.32;101658.00;5096689;27;46310;-60
2022/05/08 05:15:07;;;;;;;;;46.00;39.33;;;;;16.06;60.95;101660.53;5096724;27;45595;-59
2022/05/08 05:17:33;;;;;;;;;54.67;44.00;;;;;16.07;60.14;101664.94;5096522;27;45504;-59
2022/05/08 05:19:59;;;;;;;;;52.00;41.33;;;;;16.08;60.77;101664.00;5096222;27;45461;-60
2022/05/08 05:22:24;;;;;;;;;48.33;40.00;;;;;16.10;60.61;101666.59;5096624;27;45492;-59
2022/05/08 05:24:50;;;;;;;;;51.00;42.75;;;;;16.05;61.28;101669.44;5096780;27;45549;-59
2022/05/08 05:27:16;;;;;;;;;48.00;39.67;;;;;16.07;61.02;101666.72;5096222;27;45551;-59
2022/05/08 05:29:41;;;;;;;;;48.33;40.33;;;;;16.07;61.04;101672.03;5096236;27;45478;-59
2022/05/08 05:32:07;;;;;;;;;49.33;42.33;;;;;16.06;60.58;101676.47;5096449;27;45538;-59
2022/05/08 05:34:32;;;;;;;;;52.33;41.67;;;;;16.02;59.91;101679.31;5096524;27;45608;-60
2022/05/08 05:36:57;;;;;;;;;51.25;40.50;;;;;15.96;61.21;101682.19;5096222;27;45678;-59
2022/05/08 05:39:24;;;;;;;;;48.67;39.67;;;;;15.96;61.46;101687.50;5095826;27;46285;-59
2022/05/08 05:41:52;;;;;;;;;51.50;42.25;;;;;15.98;60.72;101693.63;5096219;27;45484;-59
2022/05/08 05:44:17;;;;;;;;;53.00;43.00;;;;;15.92;61.62;101688.56;5096268;27;45459;-60
2022/05/08 05:49:27;;;;;;;;;49.00;42.00;;;;;15.75;61.74;101698.06;5095981;27;45878;-59
2022/05/08 05:51:53;;;;;;;;;49.75;42.00;;;;;15.74;61.21;101696.31;5096147;27;45705;-59
2022/05/08 05:54:21;;;;;;;;;52.00;43.75;;;;;15.78;62.06;101697.94;5096066;27;45517;-59
2022/05/08 05:56:47;;;;;;;;;48.25;40.75;;;;;15.86;60.99;101695.00;5096166;27;45568;-59
2022/05/08 05:59:13;;;;;;;;;47.33;39.67;;;;;15.93;61.85;101695.59;5095667;27;46108;-59
2022/05/08 06:01:38;;;;;;;;;52.50;42.25;;;;;16.01;60.94;101699.69;5093955;27;45389;-59
2022/05/08 06:04:03;;;;;;;;;51.75;43.75;;;;;16.09;61.17;101702.91;5095944;27;45559;-59
2022/05/08 06:06:29;;;;;;;;;51.00;41.25;;;;;16.07;61.79;101702.09;5095712;27;47408;-59
2022/05/08 06:08:54;;;;;;;;;51.25;41.25;;;;;16.13;61.31;101708.94;5095624;27;46122;-59
2022/05/08 06:11:19;;;;;;;;;49.50;41.00;;;;;16.16;60.67;101703.50;5095613;27;53958;-61
2022/05/08 06:13:45;;;;;;;;;53.75;45.25;;;;;16.20;60.81;101710.41;5094318;27;45901;-60
2022/05/08 06:16:10;;;;;;;;;50.50;42.00;;;;;16.20;60.89;101704.22;5094697;27;45453;-59
2022/05/08 06:18:35;;;;;;;;;48.75;40.25;;;;;16.17;60.26;101702.56;5095494;27;45690;-63
2022/05/08 06:21:01;;;;;;;;;50.33;41.67;;;;;16.23;61.29;101712.09;5095202;27;45517;-60
2022/05/08 06:23:26;;;;;;;;;49.75;41.00;;;;;16.23;60.29;101710.28;5095507;27;45462;-60
2022/05/08 06:25:52;;;;;;;;;51.33;42.00;;;;;16.20;60.63;101706.88;5095531;27;45495;-60
2022/05/08 06:28:19;;;;;;;;;52.25;42.75;;;;;16.05;61.24;101706.59;5095448;27;45664;-60
2022/05/08 06:30:48;;;;;;;;;54.00;42.75;;;;;16.01;60.58;101712.06;5095570;27;45515;-60
2022/05/08 06:33:14;;;;;;;;;52.50;42.50;;;;;15.88;61.32;101714.38;5095624;27;45974;-60
2022/05/08 06:35:41;;;;;;;;;54.75;44.25;;;;;15.90;61.35;101713.38;5094223;27;45488;-59
2022/05/08 06:38:15;;;;;;;;;54.67;43.67;;;;;15.95;61.70;101714.97;5095034;27;46142;-59
2022/05/08 06:40:42;;;;;;;;;47.50;39.75;;;;;15.95;61.27;101710.53;5095002;27;45402;-60
2022/05/08 06:43:08;;;;;;;;;48.67;42.00;;;;;16.01;61.61;101718.28;5095226;27;45523;-59
2022/05/08 06:45:34;;;;;;;;;51.50;41.75;;;;;16.01;61.49;101717.38;5094861;27;45530;-60
2022/05/08 06:47:59;;;;;;;;;50.50;41.00;;;;;16.09;61.17;101713.50;5094918;27;46330;-60
2022/05/08 06:50:24;;;;;;;;;51.25;41.50;;;;;16.16;60.28;101719.41;5093967;27;45447;-60
2022/05/08 06:52:50;;;;;;;;;47.33;41.00;;;;;16.21;60.56;101720.09;5095180;27;45964;-60
2022/05/08 06:55:15;;;;;;;;;47.67;41.33;;;;;16.17;60.53;101721.13;5095271;27;45532;-60
2022/05/08 06:57:41;;;;;;;;;50.50;42.00;;;;;16.13;60.98;101719.56;5095084;27;45468;-60
2022/05/08 07:02:51;;;;;;;;;49.67;40.67;;;;;16.09;61.34;101721.47;5095122;27;45515;-60
2022/05/08 07:05:17;;;;;;;;;46.00;39.00;;;;;16.09;61.44;101731.19;5094584;27;45518;-60
2022/05/08 07:07:42;;;;;;;;;48.00;40.67;;;;;16.07;60.69;101731.28;5094625;27;46085;-60
2022/05/08 07:10:08;;;;;;;;;46.33;40.00;;;;;16.07;60.52;101733.94;5094733;27;45469;-60
2022/05/08 07:12:38;;;;;;;;;46.67;40.00;;;;;16.10;61.34;101728.50;5094817;27;45485;-59
2022/05/08 07:15:05;;;;;;;;;46.00;38.67;;;;;16.09;61.56;101740.06;5094942;27;45406;-59
2022/05/08 07:17:30;;;;;;;;;45.67;39.33;;;;;16.02;60.79;101737.69;5094393;27;46129;-59
2022/05/08 07:19:56;;;;;;;;;48.33;41.00;;;;;16.09;61.21;101737.41;5094652;27;45555;-59
2022/05/08 07:22:22;;;;;;;;;50.33;41.67;;;;;16.10;61.47;101735.59;5094717;27;45420;-60
2022/05/08 07:24:48;;;;;;;;;52.33;40.67;;;;;16.21;60.94;101743.13;5094830;27;45442;-60
2022/05/08 07:27:13;;;;;;;;;44.67;37.67;;;;;16.21;61.13;101746.63;5094469;27;45557;-60
2022/05/08 07:29:43;;;;;;;;;43.00;37.67;;;;;16.28;60.88;101741.94;5094340;27;45550;-60
2022/05/08 07:32:09;;;;;;;;;41.67;36.67;;;;;16.35;60.18;101748.72;5094775;27;45524;-60
2022/05/08 07:37:18;;;;;;;;;47.33;39.67;;;;;16.42;60.70;101747.56;5094237;27;45569;-59
2022/05/08 07:39:43;;;;;;;;;45.33;38.67;;;;;16.39;59.77;101747.69;5094163;27;45540;-60
2022/05/08 07:42:09;;;;;;;;;47.33;39.67;;;;;16.43;60.25;101754.59;5094357;27;46149;-60
2022/05/08 07:44:35;;;;;;;;;44.67;37.00;;;;;16.46;60.17;101751.81;5094178;27;45515;-60
2022/05/08 07:47:00;;;;;;;;;49.00;39.00;;;;;16.41;60.21;101743.16;5094075;27;46128;-60
2022/05/08 07:49:26;;;;;;;;;47.33;39.33;;;;;16.37;59.82;101748.69;5093881;27;45536;-60
2022/05/08 07:51:52;;;;;;;;;47.67;40.00;;;;;16.29;60.42;101752.50;5094370;27;45495;-61
2022/05/08 07:54:17;;;;;;;;;46.00;38.67;;;;;16.35;60.30;101756.69;5093889;27;45548;-60
2022/05/08 07:56:43;;;;;;;;;50.00;39.67;;;;;16.37;60.46;101762.81;5094165;27;45510;-60
2022/05/08 07:59:08;;;;;;;;;48.33;38.67;;;;;16.33;60.78;101758.53;5092503;27;45435;-60
2022/05/08 08:01:34;;;;;;;;;32.00;31.33;;;;;16.37;60.08;101765.47;5094008;27;45535;-60
2022/05/08 08:03:59;;;;;;;;;45.33;37.33;;;;;16.40;60.06;101757.38;5094163;27;45485;-60
2022/05/08 08:06:24;;;;;;;;;47.00;38.00;;;;;16.49;59.91;101759.63;5093824;27;45468;-60
2022/05/08 08:08:50;;;;;;;;;43.33;37.33;;;;;16.54;59.66;101762.97;5093890;27;45560;-60
2022/05/08 08:11:15;;;;;;;;;43.67;36.67;;;;;16.63;59.89;101764.41;5092759;27;45489;-60
2022/05/08 08:13:40;;;;;;;;;49.33;39.33;;;;;16.67;60.19;101767.78;5094051;27;45723;-59
2022/05/08 08:16:07;;;;;;;;;48.33;39.33;;;;;16.68;59.90;101770.34;5093883;27;46101;-60
2022/05/08 08:18:33;;;;;;;;;49.67;41.00;;;;;16.73;59.83;101767.50;5097011;27;45524;-60
2022/05/08 08:20:58;;;;;;;;;48.00;37.67;;;;;16.82;59.15;101771.59;5096977;27;45502;-60
2022/05/08 08:23:24;;;;;;;;;48.33;40.00;;;;;16.74;59.21;101774.56;5097074;27;45554;-61
2022/05/08 08:25:49;;;;;;;;;49.67;40.00;;;;;16.75;59.02;101779.81;5097064;27;45529;-60
2022/05/08 08:28:15;;;;;;;;;49.33;40.00;;;;;16.70;59.88;101763.19;5097522;27;45452;-60
2022/05/08 08:30:40;;;;;;;;;46.33;40.00;;;;;16.66;59.37;101776.69;5096157;27;45631;-60
2022/05/08 08:33:05;;;;;;;;;45.00;37.67;;;;;16.66;59.34;101763.41;5097431;27;45397;-60
2022/05/08 08:35:31;;;;;;;;;47.00;38.33;;;;;16.72;59.29;101771.97;5096993;27;46085;-60
2022/05/08 08:37:56;;;;;;;;;43.00;36.67;;;;;16.69;59.42;101761.47;5097205;27;45522;-60
2022/05/08 08:40:22;;;;;;;;;45.00;38.00;;;;;16.75;59.03;101773.63;5097421;27;45566;-60
2022/05/08 08:42:49;;;;;;;;;48.33;37.33;;;;;16.78;59.36;101776.19;5097050;27;45513;-60
2022/05/08 08:48:08;;;;;;;;;47.00;37.67;;;;;16.76;60.04;101767.38;5097122;27;45518;-60
2022/05/08 08:50:35;;;;;;;;;52.67;42.00;;;;;16.83;59.94;101774.19;5096974;27;45590;-60
2022/05/08 08:53:03;;;;;;;;;49.67;41.00;;;;;16.86;59.04;101773.22;5097072;27;45439;-60
2022/05/08 08:55:29;;;;;;;;;48.33;38.67;;;;;16.86;59.49;101768.75;5095530;27;48065;-60
2022/05/08 08:57:54;;;;;;;;;49.50;41.50;;;;;16.82;58.93;101776.91;5096737;27;45497;-60
2022/05/08 09:00:21;;;;;;;;;46.67;38.33;;;;;16.83;59.10;101771.53;5096759;27;45552;-60
2022/05/08 09:02:47;;;;;;;;;47.33;40.00;;;;;16.93;59.31;101766.72;5097061;27;45542;-60
2022/05/08 09:05:14;;;;;;;;;49.00;41.00;;;;;16.92;58.92;101759.66;5096524;27;45661;-60
2022/05/08 09:07:43;;;;;;;;;49.00;40.33;;;;;17.06;58.75;101769.66;5096514;27;45506;-61
2022/05/08 09:10:11;;;;;;;;;51.00;40.00;;;;;17.15;59.03;101766.63;5096492;27;45477;-60
2022/05/08 09:12:38;;;;;;;;;45.00;37.00;;;;;17.15;58.65;101772.81;5096638;27;45452;-61
2022/05/08 09:15:26;;;;;;;;;49.00;41.67;;;;;17.19;58.06;101770.88;5094351;27;46423;-61
2022/05/08 09:17:57;;;;;;;;;51.67;42.00;;;;;17.28;58.32;101766.97;5096613;27;45421;-61
2022/05/08 09:20:43;;;;;;;;;46.33;39.00;;;;;17.37;57.75;101770.03;5096554;27;45521;-58
2022/05/08 09:23:23;;;;;;;;;45.33;38.00;;;;;17.44;57.71;101773.31;5096296;27;45510;-60
2022/05/08 09:25:51;;;;;;;;;50.00;42.67;;;;;17.46;57.40;101776.75;5096272;27;45579;-61
2022/05/08 09:28:25;;;;;;;;;53.33;42.33;;;;;17.40;57.34;101772.56;5095627;27;45474;-60
2022/05/08 09:31:10;;;;;;;;;43.67;38.33;;;;;17.47;57.13;101772.31;5096419;27;45458;-61
2022/05/08 09:33:37;;;;;;;;;51.33;40.67;;;;;17.49;57.26;101773.97;5096429;27;45468;-64
2022/05/08 09:36:09;;;;;;;;;45.67;39.67;;;;;17.53;57.17;101772.03;5096312;27;46279;-63
2022/05/08 09:38:52;;;;;;;;;49.00;40.00;;;;;17.48;57.11;101772.22;5096067;27;45433;-60
2022/05/08 09:41:19;;;;;;;;;49.33;40.33;;;;;17.55;57.49;101775.47;5096294;27;45461;-61
2022/05/08 09:43:44;;;;;;;;;50.67;42.00;;;;;17.58;57.49;101775.34;5096047;27;45427;-61
2022/05/08 09:46:10;;;;;;;;;51.33;44.00;;;;;17.63;57.22;101782.16;5095908;27;45488;-61
2022/05/08 09:48:36;;;;;;;;;49.00;41.00;;;;;17.59;57.44;101771.72;5096091;27;45544;-60
2022/05/08 09:51:04;;;;;;;;;51.67;42.33;;;;;17.56;56.79;101772.72;5096062;27;45611;-60
2022/05/08 09:53:31;;;;;;;;;50.00;41.00;;;;;17.61;57.71;101772.53;5095959;27;45513;-60
2022/05/08 09:55:58;;;;;;;;;48.67;40.33;;;;;17.64;57.10;101772.38;5095773;27;46007;-60
2022/05/08 09:58:24;;;;;;;;;50.67;42.33;;;;;17.63;57.17;101765.34;5095787;27;45551;-60
2022/05/08 10:00:51;;;;;;;;;51.33;42.33;;;;;17.65;57.33;101760.78;5095492;27;45542;-60
2022/05/08 10:03:20;;;;;;;;;53.00;44.00;;;;;17.69;57.05;101773.03;5095907;27;45486;-60
2022/05/08 10:05:47;;;;;;;;;54.00;43.25;;;;;17.74;57.02;101763.03;5095530;27;45540;-61
2022/05/08 10:08:15;;;;;;;;;54.33;44.67;;;;;17.80;56.18;101761.94;5095679;27;45542;-60
2022/05/08 10:17:02;;;;;;;;;51.67;43.67;;;;;17.79;56.95;101762.88;5095691;27;46095;-60
2022/05/08 10:19:27;;;;;;;;;54.67;44.67;;;;;17.84;56.67;101767.03;5095363;27;45532;-60
2022/05/08 10:22:13;;;;;;;;;54.33;43.00;;;;;17.87;56.46;101758.91;5094096;27;45554;-61
2022/05/08 10:24:38;;;;;;;;;51.00;42.67;;;;;17.97;56.39;101763.78;5095168;27;45724;-60
2022/05/08 10:27:15;;;;;;;;;50.67;42.67;;;;;18.03;56.11;101761.69;5094903;27;46230;-61
2022/05/08 10:29:50;;;;;;;;;44.67;37.67;;;;;18.05;55.99;101767.81;5095208;27;45519;-60
2022/05/08 10:32:28;;;;;;;;;52.67;44.00;;;;;18.05;56.05;101758.94;5095488;27;45559;-60
2022/05/08 10:35:12;;;;;;;;;50.67;40.67;;;;;18.08;55.89;101757.03;5095353;27;45583;-60
2022/05/08 10:37:41;;;;;;;;;54.00;43.33;;;;;18.19;56.02;101750.28;5094882;27;45490;-60
2022/05/08 10:40:22;;;;;;;;;50.67;41.00;;;;;18.29;55.69;101748.91;5094613;27;45622;-60
2022/05/08 10:42:48;;;;;;;;;52.67;44.00;;;;;18.31;55.29;101747.03;5095225;27;45486;-61
2022/05/08 10:45:32;;;;;;;;;45.67;39.67;;;;;18.33;55.49;101756.69;5095130;27;45580;-60
2022/05/08 10:48:01;;;;;;;;;51.33;42.33;;;;;18.36;55.39;101749.47;5094702;27;46062;-60
2022/05/08 10:50:26;;;;;;;;;51.67;44.00;;;;;18.35;55.41;101742.41;5094624;27;45486;-61
2022/05/08 10:52:52;;;;;;;;;50.67;42.67;;;;;18.33;55.43;101745.16;5094978;27;45574;-60
2022/05/08 10:55:18;;;;;;;;;52.33;43.00;;;;;18.41;54.94;101748.31;5095084;27;45451;-60
2022/05/08 10:57:46;;;;;;;;;51.33;42.00;;;;;18.50;55.35;101746.97;5094886;27;45567;-60
2022/05/08 11:00:16;;;;;;;;;53.00;44.33;;;;;18.59;54.76;101753.63;5094261;27;45516;-60
2022/05/08 11:02:50;;;;;;;;;50.33;41.33;;;;;18.60;54.46;101745.59;5094641;27;45388;-60
2022/05/08 11:05:19;;;;;;;;;47.33;39.00;;;;;18.67;54.71;101739.00;5094695;27;45517;-61
2022/05/08 11:08:10;;;;;;;;;49.67;41.67;;;;;18.79;54.66;101750.88;5094552;27;45594;-61
2022/05/08 11:10:37;;;;;;;;;49.67;41.00;;;;;18.84;54.34;101743.50;5094829;27;45460;-59
2022/05/08 11:13:18;;;;;;;;;52.33;44.33;;;;;18.82;53.90;101748.03;5094719;27;45503;-60
2022/05/08 11:15:43;;;;;;;;;57.75;45.50;;;;;18.78;53.83;101749.16;5094448;27;45552;-60
2022/05/08 11:18:19;;;;;;;;;52.00;43.67;;;;;18.74;54.32;101740.44;5094296;27;45422;-60
2022/05/08 11:20:48;;;;;;;;;52.33;42.00;;;;;18.74;53.92;101748.44;5094440;27;45530;-60
2022/05/08 11:23:15;;;;;;;;;52.33;44.00;;;;;18.73;53.94;101741.34;5094589;27;45389;-60
2022/05/08 11:25:44;;;;;;;;;51.00;43.33;;;;;18.81;54.19;101745.47;5094633;27;45569;-61
2022/05/08 11:28:14;;;;;;;;;48.67;41.00;;;;;18.90;54.14;101732.50;5092878;27;47352;-61
2022/05/08 11:30:40;;;;;;;;;50.33;41.33;;;;;19.02;53.80;101735.47;5094346;27;45551;-61
2022/05/08 11:36:04;;;;;;;;;51.67;42.67;;;;;19.09;53.13;101734.22;5094861;27;45743;-61
2022/05/08 11:38:48;;;;;;;;;47.67;40.00;;;;;19.07;53.23;101722.75;5094055;27;46063;-60
2022/05/08 11:41:26;;;;;;;;;49.67;41.00;;;;;19.10;53.42;101718.16;5094114;27;45534;-60